Time;durP1;ratioP1;P1;durP2;ratioP2;P2;SDS_P1;SDS_P2;PMS_P1;PMS_P2;Temp;Humidity;BMP_temperature;BMP_pressure;BME280_temperature;BME280_humidity;BME280_pressure;Samples;Min_cycle;Max_cycle;Signal;HPM_P1;HPM_P2
2024/02/24 00:02:23;;;;;;;28.00;26.00;;;4.70;86.60;;;;;;5115398;28;20174;-90
2024/02/24 00:04:48;;;;;;;29.03;26.90;;;4.70;86.70;;;;;;5115218;28;20174;-90
2024/02/24 00:07:14;;;;;;;29.33;27.23;;;4.60;86.80;;;;;;5116614;27;20163;-90
2024/02/24 00:09:39;;;;;;;18.10;16.50;;;4.50;86.80;;;;;;5116351;28;20205;-90
2024/02/24 00:12:05;;;;;;;17.63;16.17;;;4.50;87.00;;;;;;5115318;28;20212;-90
2024/02/24 00:14:31;;;;;;;16.53;15.33;;;4.50;87.10;;;;;;5115278;28;20649;-90
2024/02/24 00:16:56;;;;;;;16.90;15.50;;;4.50;87.20;;;;;;5116366;28;20171;-90
2024/02/24 00:19:22;;;;;;;17.53;15.93;;;4.80;87.10;;;;;;5114982;28;20243;-90
2024/02/24 00:21:47;;;;;;;17.67;16.30;;;4.70;86.80;;;;;;5115018;28;20178;-90
2024/02/24 00:24:13;;;;;;;17.90;16.27;;;4.70;86.70;;;;;;5114919;28;20593;-90
2024/02/24 00:26:39;;;;;;;16.73;15.53;;;4.80;86.60;;;;;;5115987;28;20170;-90
2024/02/24 00:29:04;;;;;;;17.90;16.13;;;4.70;86.40;;;;;;5115831;28;20198;-90
2024/02/24 00:31:30;;;;;;;19.07;17.23;;;4.60;86.50;;;;;;5115847;28;20174;-90
2024/02/24 00:33:55;;;;;;;18.20;16.57;;;4.50;86.60;;;;;;5114932;28;20626;-90
2024/02/24 00:36:21;;;;;;;16.93;15.63;;;4.40;86.70;;;;;;5114966;28;20177;-90
2024/02/24 00:38:46;;;;;;;17.23;15.93;;;4.40;86.80;;;;;;5114498;28;20194;-90
2024/02/24 00:41:12;;;;;;;16.70;15.50;;;4.30;86.90;;;;;;5114834;28;20721;-90
2024/02/24 00:43:37;;;;;;;17.30;15.77;;;4.20;86.90;;;;;;5114485;28;20184;-91
2024/02/24 00:46:03;;;;;;;17.17;15.90;;;4.20;87.10;;;;;;5114337;28;20205;-90
2024/02/24 00:48:29;;;;;;;17.10;15.87;;;4.30;87.20;;;;;;5114448;28;20231;-90
2024/02/24 00:50:55;;;;;;;18.40;16.57;;;4.30;87.10;;;;;;5114821;28;20166;-90
2024/02/24 00:53:20;;;;;;;17.30;16.00;;;4.30;87.10;;;;;;5114304;28;20203;-90
2024/02/24 00:55:46;;;;;;;17.80;16.50;;;4.30;87.10;;;;;;5115334;28;20181;-90
2024/02/24 00:58:11;;;;;;;18.03;16.63;;;4.30;87.00;;;;;;5115492;28;20194;-90
2024/02/24 01:00:37;;;;;;;16.77;15.63;;;4.30;86.90;;;;;;5114017;28;20199;-90
2024/02/24 01:03:02;;;;;;;17.50;16.20;;;4.30;87.00;;;;;;5114453;28;20189;-90
2024/02/24 01:05:28;;;;;;;17.87;16.40;;;4.30;86.70;;;;;;5115407;28;20181;-88
2024/02/24 01:07:56;;;;;;;18.33;17.00;;;4.30;86.80;;;;;;5113825;28;20285;-89
2024/02/24 01:10:23;;;;;;;18.93;17.40;;;4.40;86.70;;;;;;5113914;28;20166;-89
2024/02/24 01:12:49;;;;;;;30.80;28.70;;;4.50;86.40;;;;;;5114979;28;20163;-89
2024/02/24 01:15:15;;;;;;;32.47;30.30;;;4.40;86.10;;;;;;5114171;28;20673;-88
2024/02/24 01:17:40;;;;;;;32.47;30.37;;;4.40;86.00;;;;;;5113659;28;20666;-89
2024/02/24 01:20:06;;;;;;;30.97;28.57;;;4.40;86.00;;;;;;5113899;28;20170;-89
2024/02/24 01:22:31;;;;;;;29.23;27.03;;;4.40;86.00;;;;;;5114669;28;20253;-89
2024/02/24 01:24:57;;;;;;;31.13;28.97;;;4.40;85.90;;;;;;5114463;28;20195;-89
2024/02/24 01:27:22;;;;;;;31.07;28.83;;;4.30;86.00;;;;;;5113826;28;20185;-89
2024/02/24 01:29:48;;;;;;;31.60;28.87;;;4.30;86.00;;;;;;5113550;28;20197;-89
2024/02/24 01:32:14;;;;;;;30.07;27.87;;;4.10;86.20;;;;;;5113424;28;20173;-88
2024/02/24 01:34:39;;;;;;;30.17;28.07;;;4.10;86.10;;;;;;5113451;28;20180;-89
2024/02/24 01:37:05;;;;;;;31.07;28.73;;;4.10;86.10;;;;;;5113401;28;20173;-88
2024/02/24 01:39:32;;;;;;;30.40;28.27;;;3.90;86.30;;;;;;5114760;28;20570;-88
2024/02/24 01:41:57;;;;;;;29.10;27.03;;;3.80;86.40;;;;;;5114712;28;20174;-89
2024/02/24 01:44:23;;;;;;;29.77;27.73;;;3.70;86.70;;;;;;5113264;28;20674;-88
2024/02/24 01:46:50;;;;;;;29.13;27.13;;;3.70;87.10;;;;;;5113269;28;20258;-89
2024/02/24 01:49:16;;;;;;;31.60;29.27;;;3.80;87.30;;;;;;5114199;28;20210;-89
2024/02/24 01:51:42;;;;;;;31.47;29.37;;;4.00;87.10;;;;;;5114286;28;20532;-88
2024/02/24 01:54:09;;;;;;;32.50;30.03;;;4.10;86.80;;;;;;5114524;28;20178;-88
2024/02/24 01:56:37;;;;;;;32.27;29.77;;;4.00;86.70;;;;;;5114190;28;20182;-88
2024/02/24 01:59:03;;;;;;;31.43;29.00;;;4.00;86.50;;;;;;5114358;28;20194;-88
2024/02/24 02:01:30;;;;;;;30.67;28.40;;;4.00;86.60;;;;;;5111990;28;20185;-88
2024/02/24 02:03:56;;;;;;;29.47;27.17;;;4.00;87.00;;;;;;5114424;28;20591;-88
2024/02/24 02:06:24;;;;;;;29.07;27.00;;;3.90;86.80;;;;;;5112895;28;20244;-88
2024/02/24 02:08:49;;;;;;;30.27;27.83;;;4.00;87.00;;;;;;5113824;28;20201;-89
2024/02/24 02:11:15;;;;;;;29.97;27.77;;;4.00;86.70;;;;;;5112721;28;20177;-89
2024/02/24 02:13:41;;;;;;;29.00;27.17;;;4.20;86.80;;;;;;5114005;28;20173;-89
2024/02/24 02:16:07;;;;;;;32.97;30.50;;;4.10;86.40;;;;;;5113946;28;20561;-88
2024/02/24 02:18:33;;;;;;;29.70;27.50;;;4.10;86.40;;;;;;5113793;28;20200;-88
2024/02/24 02:20:59;;;;;;;28.37;26.47;;;4.00;86.30;;;;;;5112753;28;20181;-89
2024/02/24 02:23:24;;;;;;;29.67;27.37;;;4.00;86.40;;;;;;5112638;28;20180;-89
2024/02/24 02:25:50;;;;;;;30.63;28.43;;;4.00;86.40;;;;;;5112519;28;20229;-89
2024/02/24 02:28:15;;;;;;;30.33;28.10;;;4.00;86.40;;;;;;5112446;28;20216;-88
2024/02/24 02:30:41;;;;;;;30.63;27.77;;;4.00;86.30;;;;;;5113755;28;20175;-89
2024/02/24 02:33:08;;;;;;;32.57;30.27;;;4.00;86.30;;;;;;5112565;28;20260;-89
2024/02/24 02:35:34;;;;;;;31.30;28.97;;;4.00;86.20;;;;;;5113687;28;20172;-89
2024/02/24 02:38:00;;;;;;;31.53;29.23;;;4.00;85.90;;;;;;5113581;28;20620;-89
2024/02/24 02:40:26;;;;;;;30.93;28.73;;;3.80;85.90;;;;;;5112501;28;20219;-89
2024/02/24 02:42:51;;;;;;;31.30;29.07;;;3.80;86.30;;;;;;5113602;28;20222;-89
2024/02/24 02:45:17;;;;;;;30.60;28.50;;;3.70;86.40;;;;;;5112357;28;20220;-89
2024/02/24 02:47:42;;;;;;;31.47;29.03;;;3.70;86.60;;;;;;5112182;28;20213;-88
2024/02/24 02:50:08;;;;;;;18.10;16.60;;;3.60;86.60;;;;;;5112445;28;20184;-89
2024/02/24 02:52:34;;;;;;;17.67;16.27;;;3.50;86.80;;;;;;5113913;28;20200;-89
2024/02/24 02:55:00;;;;;;;18.90;17.50;;;3.60;86.90;;;;;;5112584;28;20185;-89
2024/02/24 02:57:25;;;;;;;18.87;16.97;;;3.70;86.90;;;;;;5113789;28;20307;-90
2024/02/24 02:59:51;;;;;;;18.60;16.97;;;3.70;86.50;;;;;;5112278;28;20182;-88
2024/02/24 03:02:17;;;;;;;18.63;16.67;;;3.70;86.50;;;;;;5113449;28;20185;-89
2024/02/24 03:04:42;;;;;;;18.00;16.90;;;3.70;86.50;;;;;;5113247;28;20201;-89
2024/02/24 03:07:08;;;;;;;18.80;17.37;;;3.60;86.40;;;;;;5111924;28;20656;-89
2024/02/24 03:09:33;;;;;;;18.90;17.23;;;3.60;86.70;;;;;;5111743;28;20212;-90
2024/02/24 03:11:59;;;;;;;17.97;16.60;;;3.50;86.60;;;;;;5112012;28;20177;-89
2024/02/24 03:14:24;;;;;;;17.33;16.10;;;3.60;86.80;;;;;;5116542;28;20180;-89
2024/02/24 03:16:50;;;;;;;18.87;17.43;;;3.50;86.80;;;;;;5116145;28;20204;-89
2024/02/24 03:19:16;;;;;;;18.90;17.17;;;3.40;86.90;;;;;;5117279;28;20539;-89
2024/02/24 03:21:41;;;;;;;19.37;17.77;;;3.50;87.00;;;;;;5117253;28;20170;-88
2024/02/24 03:24:07;;;;;;;18.37;16.87;;;3.40;87.10;;;;;;5115949;28;20188;-88
2024/02/24 03:26:32;;;;;;;18.50;16.93;;;3.40;87.10;;;;;;5116024;28;20181;-89
2024/02/24 03:28:58;;;;;;;18.73;17.33;;;3.40;87.30;;;;;;5115879;28;20219;-89
2024/02/24 03:31:25;;;;;;;18.30;16.80;;;3.50;87.60;;;;;;5115905;28;20686;-88
2024/02/24 03:33:52;;;;;;;18.77;17.07;;;3.50;87.10;;;;;;5115748;28;20172;-88
2024/02/24 03:36:19;;;;;;;17.93;16.47;;;3.40;87.20;;;;;;5115782;28;20177;-89
2024/02/24 03:38:44;;;;;;;17.37;15.87;;;3.30;87.40;;;;;;5116892;28;20201;-89
2024/02/24 03:41:10;;;;;;;17.57;15.97;;;3.30;87.70;;;;;;5116109;28;20180;-89
2024/02/24 03:43:37;;;;;;;17.50;15.93;;;3.20;87.80;;;;;;5115728;28;20177;-89
2024/02/24 03:46:03;;;;;;;16.47;15.07;;;3.30;88.00;;;;;;5115627;28;20619;-89
2024/02/24 03:48:32;;;;;;;17.33;15.70;;;3.30;88.00;;;;;;5116629;27;20217;-89
2024/02/24 03:50:59;;;;;;;28.03;25.90;;;3.30;88.10;;;;;;5116271;28;20513;-89
2024/02/24 03:53:25;;;;;;;31.67;29.23;;;3.30;88.00;;;;;;5115803;28;20231;-89
2024/02/24 03:55:51;;;;;;;29.80;27.43;;;3.30;88.10;;;;;;5115951;28;20177;-89
2024/02/24 03:58:18;;;;;;;30.60;28.13;;;3.30;88.00;;;;;;5116443;28;20543;-89
2024/02/24 04:00:44;;;;;;;30.47;28.13;;;3.20;88.10;;;;;;5115220;28;20244;-89
2024/02/24 04:03:09;;;;;;;17.70;16.40;;;3.20;88.10;;;;;;5116803;28;20573;-89
2024/02/24 04:05:35;;;;;;;23.70;22.07;;;3.20;88.20;;;;;;5116368;28;20188;-89
2024/02/24 04:08:00;;;;;;;31.67;29.00;;;3.30;88.20;;;;;;5116435;28;20319;-89
2024/02/24 04:10:26;;;;;;;31.87;29.60;;;3.30;88.00;;;;;;5115426;28;20174;-89
2024/02/24 04:12:51;;;;;;;28.90;26.63;;;3.20;87.90;;;;;;5116250;28;20178;-89
2024/02/24 04:15:21;;;;;;;28.67;26.67;;;3.30;88.00;;;;;;5114975;28;20181;-88
2024/02/24 04:17:47;;;;;;;30.23;27.80;;;3.30;87.80;;;;;;5116068;27;20724;-89
2024/02/24 04:20:13;;;;;;;29.83;27.63;;;3.20;87.80;;;;;;5116131;28;20288;-89
2024/02/24 04:22:39;;;;;;;32.93;30.30;;;3.30;88.10;;;;;;5116101;28;20228;-89
2024/02/24 04:25:05;;;;;;;29.93;27.63;;;3.30;87.90;;;;;;5114905;28;20223;-88
2024/02/24 04:27:31;;;;;;;32.50;29.90;;;3.30;87.80;;;;;;5115852;28;20169;-89
2024/02/24 04:29:56;;;;;;;29.77;27.57;;;3.20;87.90;;;;;;5115746;28;20203;-88
2024/02/24 04:32:22;;;;;;;30.37;27.97;;;3.30;87.90;;;;;;5115878;27;20177;-88
2024/02/24 04:34:48;;;;;;;30.90;28.67;;;3.10;87.90;;;;;;5115909;28;20642;-89
2024/02/24 04:37:13;;;;;;;30.33;28.03;;;3.10;88.00;;;;;;5114619;28;20233;-88
2024/02/24 04:39:39;;;;;;;29.97;27.63;;;3.10;88.10;;;;;;5115648;28;20232;-89
2024/02/24 04:42:04;;;;;;;30.17;27.70;;;3.20;88.30;;;;;;5114596;28;20268;-89
2024/02/24 04:44:30;;;;;;;29.20;27.07;;;3.20;88.20;;;;;;5115640;28;20268;-89
2024/02/24 04:46:56;;;;;;;30.63;27.90;;;3.20;88.00;;;;;;5114633;28;20210;-89
2024/02/24 04:49:21;;;;;;;30.10;27.90;;;3.20;87.90;;;;;;5115429;28;20200;-89
2024/02/24 04:51:47;;;;;;;31.47;28.70;;;3.10;87.80;;;;;;5114337;28;20210;-89
2024/02/24 04:54:13;;;;;;;31.10;28.80;;;3.10;87.90;;;;;;5114273;28;20385;-89
2024/02/24 04:56:39;;;;;;;31.53;29.13;;;3.10;87.90;;;;;;5115523;28;20175;-88
2024/02/24 04:59:05;;;;;;;32.70;30.17;;;3.10;88.00;;;;;;5114125;28;20294;-90
2024/02/24 05:01:30;;;;;;;31.40;29.07;;;3.00;88.10;;;;;;5114110;28;20181;-89
2024/02/24 05:03:56;;;;;;;32.10;29.63;;;3.00;88.10;;;;;;5114148;28;20260;-89
2024/02/24 05:06:21;;;;;;;32.47;30.20;;;3.00;88.30;;;;;;5114287;28;20191;-89
2024/02/24 05:08:47;;;;;;;32.70;30.10;;;3.00;88.30;;;;;;5113819;28;20235;-89
2024/02/24 05:11:13;;;;;;;31.43;29.07;;;3.00;88.50;;;;;;5114071;28;20285;-89
2024/02/24 05:13:39;;;;;;;31.93;29.70;;;3.00;88.40;;;;;;5115141;28;20196;-89
2024/02/24 05:16:05;;;;;;;32.63;30.20;;;3.00;88.40;;;;;;5113969;28;20172;-89
2024/02/24 05:18:30;;;;;;;32.43;29.67;;;3.10;88.40;;;;;;5113750;28;20257;-89
2024/02/24 05:20:58;;;;;;;30.93;28.60;;;3.00;88.30;;;;;;5114145;28;20574;-89
2024/02/24 05:23:23;;;;;;;31.67;28.93;;;2.90;88.30;;;;;;5113832;28;20229;-89
2024/02/24 05:25:49;;;;;;;30.70;28.37;;;2.90;88.60;;;;;;5115425;28;20193;-89
2024/02/24 05:28:14;;;;;;;31.33;29.23;;;3.00;88.70;;;;;;5113552;28;20576;-89
2024/02/24 05:30:40;;;;;;;31.13;28.20;;;3.00;88.80;;;;;;5113745;28;20651;-89
2024/02/24 05:33:05;;;;;;;30.27;28.03;;;3.00;88.80;;;;;;5113544;28;20173;-89
2024/02/24 05:35:31;;;;;;;28.07;26.07;;;3.00;88.80;;;;;;5114375;28;20168;-89
2024/02/24 05:37:56;;;;;;;25.20;23.43;;;3.00;89.00;;;;;;5114095;28;20200;-89
2024/02/24 05:40:22;;;;;;;19.13;17.47;;;3.00;89.00;;;;;;5113485;28;20172;-89
2024/02/24 05:42:48;;;;;;;17.80;16.40;;;3.10;89.10;;;;;;5114480;28;20164;-90
2024/02/24 05:45:13;;;;;;;17.97;16.60;;;3.00;89.00;;;;;;5113230;28;20169;-89
2024/02/24 05:47:39;;;;;;;18.40;16.73;;;3.10;89.20;;;;;;5113139;28;20666;-89
2024/02/24 05:50:05;;;;;;;18.33;16.57;;;3.20;89.30;;;;;;5114000;28;20208;-89
2024/02/24 05:52:30;;;;;;;17.83;16.20;;;3.20;89.00;;;;;;5114572;28;20176;-89
2024/02/24 05:54:56;;;;;;;19.17;17.57;;;3.30;89.10;;;;;;5113079;28;20726;-89
2024/02/24 05:57:22;;;;;;;18.00;16.60;;;3.50;89.00;;;;;;5112996;28;20690;-89
2024/02/24 05:59:47;;;;;;;17.70;16.10;;;3.40;88.60;;;;;;5112972;28;20170;-89
2024/02/24 06:02:13;;;;;;;18.93;17.20;;;3.40;88.50;;;;;;5114520;28;20185;-89
2024/02/24 06:04:38;;;;;;;18.60;16.60;;;3.40;88.50;;;;;;5113892;28;20177;-89
2024/02/24 06:07:04;;;;;;;17.40;16.00;;;3.20;88.30;;;;;;5114745;28;20649;-89
2024/02/24 06:09:30;;;;;;;17.73;15.87;;;3.30;88.70;;;;;;5112652;28;20205;-89
2024/02/24 06:11:55;;;;;;;15.93;14.73;;;3.20;88.60;;;;;;5112842;28;20210;-89
2024/02/24 06:14:21;;;;;;;15.90;14.70;;;3.10;88.90;;;;;;5112756;28;20261;-89
2024/02/24 06:16:46;;;;;;;16.37;14.87;;;3.10;89.10;;;;;;5112801;28;20243;-89
2024/02/24 06:19:12;;;;;;;17.20;15.63;;;3.10;89.30;;;;;;5112640;28;20227;-89
2024/02/24 06:21:37;;;;;;;16.60;14.97;;;3.10;89.40;;;;;;5112731;28;20219;-89
2024/02/24 06:24:03;;;;;;;15.40;14.20;;;3.10;89.60;;;;;;5113851;28;20211;-89
2024/02/24 06:26:29;;;;;;;15.60;14.30;;;3.20;89.60;;;;;;5112653;28;20185;-89
2024/02/24 06:28:55;;;;;;;18.93;15.00;;;3.30;89.60;;;;;;5112510;28;20318;-89
2024/02/24 06:31:21;;;;;;;16.43;15.10;;;3.30;89.70;;;;;;5114014;28;20541;-89
2024/02/24 06:33:46;;;;;;;16.60;15.27;;;3.30;89.70;;;;;;5113789;28;20176;-89
2024/02/24 06:36:12;;;;;;;16.90;15.60;;;3.30;89.60;;;;;;5112652;28;20169;-89
2024/02/24 06:38:37;;;;;;;16.93;15.30;;;3.50;89.60;;;;;;5112542;28;20585;-90
2024/02/24 06:41:03;;;;;;;17.50;16.03;;;3.40;89.40;;;;;;5113640;28;20188;-89
2024/02/24 06:43:29;;;;;;;17.77;16.30;;;3.40;89.40;;;;;;5112810;28;20647;-89
2024/02/24 06:45:54;;;;;;;24.50;22.70;;;3.50;89.50;;;;;;5113929;28;20256;-89
2024/02/24 06:48:20;;;;;;;26.50;24.47;;;3.60;89.40;;;;;;5113871;28;20211;-89
2024/02/24 06:50:46;;;;;;;25.03;22.77;;;3.70;89.40;;;;;;5116746;28;20558;-89
2024/02/24 06:53:12;;;;;;;25.87;23.60;;;3.60;89.30;;;;;;5117940;28;20523;-89
2024/02/24 06:55:38;;;;;;;26.63;24.77;;;3.70;89.20;;;;;;5116578;28;20169;-89
2024/02/24 06:58:03;;;;;;;27.20;25.07;;;3.70;89.30;;;;;;5117774;28;20199;-89
2024/02/24 07:00:29;;;;;;;26.67;24.67;;;3.70;89.20;;;;;;5116434;28;20170;-89
2024/02/24 07:02:55;;;;;;;25.23;23.63;;;3.70;89.20;;;;;;5116443;28;20181;-89
2024/02/24 07:05:20;;;;;;;25.80;23.83;;;3.60;89.20;;;;;;5117640;28;20215;-89
2024/02/24 07:07:46;;;;;;;25.77;23.97;;;3.70;89.30;;;;;;5116300;28;20200;-89
2024/02/24 07:10:12;;;;;;;27.33;25.33;;;3.70;89.30;;;;;;5117505;28;20253;-90
2024/02/24 07:12:37;;;;;;;28.43;26.33;;;3.80;89.10;;;;;;5117467;28;20633;-89
2024/02/24 07:15:03;;;;;;;26.37;24.53;;;3.90;89.00;;;;;;5117744;28;20181;-89
2024/02/24 07:17:28;;;;;;;26.10;24.20;;;3.80;88.80;;;;;;5116140;28;20527;-89
2024/02/24 07:19:55;;;;;;;25.63;23.73;;;3.80;88.70;;;;;;5116129;28;20220;-89
2024/02/24 07:22:21;;;;;;;26.33;24.23;;;3.80;88.80;;;;;;5116276;28;20234;-90
2024/02/24 07:24:46;;;;;;;24.00;21.77;;;3.80;88.90;;;;;;5116047;28;20185;-89
2024/02/24 07:27:12;;;;;;;26.90;24.50;;;3.80;89.00;;;;;;5116069;28;20178;-89
2024/02/24 07:29:38;;;;;;;27.73;24.93;;;4.00;89.00;;;;;;5115868;28;20292;-89
2024/02/24 07:32:04;;;;;;;25.90;23.80;;;3.90;88.60;;;;;;5117442;28;20170;-90
2024/02/24 07:34:30;;;;;;;25.63;23.73;;;4.10;88.90;;;;;;5115920;28;20199;-89
2024/02/24 07:36:55;;;;;;;25.70;23.70;;;4.20;88.80;;;;;;5115457;28;20778;-89
2024/02/24 07:39:21;;;;;;;24.40;22.27;;;4.30;88.50;;;;;;5117252;28;20229;-88
2024/02/24 07:41:47;;;;;;;25.70;23.77;;;4.20;88.50;;;;;;5115950;28;20181;-89
2024/02/24 07:44:12;;;;;;;25.20;23.30;;;4.20;88.50;;;;;;5117421;28;20170;-92
2024/02/24 07:46:38;;;;;;;24.97;22.50;;;4.20;88.60;;;;;;5115925;28;20216;-90
2024/02/24 07:49:03;;;;;;;24.07;21.67;;;4.30;88.80;;;;;;5115968;28;20213;-89
2024/02/24 07:51:29;;;;;;;23.17;21.40;;;4.30;88.90;;;;;;5115536;28;20173;-90
2024/02/24 07:53:56;;;;;;;21.73;19.93;;;4.30;89.10;;;;;;5115583;28;20640;-89
2024/02/24 07:56:22;;;;;;;22.70;20.80;;;4.30;89.20;;;;;;5116563;28;20560;-89
2024/02/24 07:58:48;;;;;;;21.47;19.40;;;4.30;89.30;;;;;;5115385;28;20239;-89
2024/02/24 08:01:13;;;;;;;21.83;19.83;;;4.30;89.30;;;;;;5115318;28;20185;-89
2024/02/24 08:03:39;;;;;;;21.13;19.43;;;4.40;89.30;;;;;;5116604;28;20177;-89
2024/02/24 08:06:05;;;;;;;21.33;19.57;;;4.40;89.20;;;;;;5116379;28;20276;-89
2024/02/24 08:08:33;;;;;;;22.23;20.43;;;4.40;89.10;;;;;;5116369;28;20206;-89
2024/02/24 08:10:59;;;;;;;20.20;18.67;;;4.50;89.10;;;;;;5115369;28;20230;-89
2024/02/24 08:13:25;;;;;;;21.23;19.50;;;4.50;89.10;;;;;;5116311;28;20204;-89
2024/02/24 08:15:50;;;;;;;14.10;12.83;;;4.60;89.10;;;;;;5116338;28;20204;-89
2024/02/24 08:18:17;;;;;;;14.07;12.73;;;4.60;89.10;;;;;;5116334;28;20229;-89
2024/02/24 08:20:42;;;;;;;13.90;12.70;;;4.70;88.90;;;;;;5114981;28;20177;-89
2024/02/24 08:23:08;;;;;;;15.23;13.73;;;4.80;88.70;;;;;;5116065;28;20169;-89
2024/02/24 08:25:33;;;;;;;13.93;12.97;;;4.80;88.70;;;;;;5116135;28;20656;-89
2024/02/24 08:27:59;;;;;;;14.67;13.37;;;4.80;88.70;;;;;;5115876;28;20567;-89
2024/02/24 08:30:24;;;;;;;13.73;12.70;;;4.90;88.60;;;;;;5114786;28;20173;-89
2024/02/24 08:32:51;;;;;;;14.30;13.07;;;4.90;88.50;;;;;;5114667;28;20193;-89
2024/02/24 08:35:17;;;;;;;14.40;13.17;;;5.00;88.40;;;;;;5114804;28;20170;-89
2024/02/24 08:37:44;;;;;;;14.10;12.83;;;5.10;88.30;;;;;;5115715;28;20568;-89
2024/02/24 08:40:11;;;;;;;16.47;13.27;;;5.10;88.10;;;;;;5115769;28;20174;-88
2024/02/24 08:42:37;;;;;;;15.13;13.67;;;5.10;87.90;;;;;;5114417;28;20174;-89
2024/02/24 08:45:03;;;;;;;15.13;12.50;;;5.10;87.60;;;;;;5115757;28;20611;-89
2024/02/24 08:47:28;;;;;;;14.90;13.47;;;5.20;87.70;;;;;;5115762;28;20235;-89
2024/02/24 08:49:54;;;;;;;15.43;13.40;;;5.20;87.90;;;;;;5115683;27;20596;-89
2024/02/24 08:52:19;;;;;;;14.40;13.00;;;5.30;87.90;;;;;;5114341;28;20170;-89
2024/02/24 08:54:45;;;;;;;16.73;13.40;;;5.20;87.60;;;;;;5115436;28;20170;-89
2024/02/24 08:57:10;;;;;;;14.63;13.20;;;5.20;87.70;;;;;;5114180;28;20558;-89
2024/02/24 08:59:36;;;;;;;14.33;13.33;;;5.30;87.80;;;;;;5115770;28;20198;-90
2024/02/24 09:02:01;;;;;;;15.00;13.70;;;5.30;87.90;;;;;;5114495;28;20184;-89
2024/02/24 09:04:27;;;;;;;14.10;12.73;;;5.30;87.70;;;;;;5115189;28;20545;-89
2024/02/24 09:06:52;;;;;;;14.50;13.40;;;5.40;87.60;;;;;;5115727;28;20399;-89
2024/02/24 09:09:18;;;;;;;14.70;13.60;;;5.60;87.70;;;;;;5115145;28;20613;-89
2024/02/24 09:11:46;;;;;;;14.70;13.30;;;5.50;87.00;;;;;;5113360;28;20367;-89
2024/02/24 09:14:12;;;;;;;15.73;14.40;;;5.50;86.90;;;;;;5113805;28;20205;-90
2024/02/24 09:16:37;;;;;;;16.47;14.97;;;5.50;86.90;;;;;;5114959;28;20541;-89
2024/02/24 09:19:03;;;;;;;15.63;14.37;;;5.50;87.10;;;;;;5114941;28;20246;-89
2024/02/24 09:21:29;;;;;;;15.43;13.93;;;5.70;87.00;;;;;;5113802;28;20268;-89
2024/02/24 09:23:54;;;;;;;16.00;14.50;;;5.90;87.00;;;;;;5113800;28;20181;-90
2024/02/24 09:26:20;;;;;;;16.00;14.80;;;6.10;86.60;;;;;;5113682;28;20258;-89
2024/02/24 09:28:46;;;;;;;15.50;14.10;;;6.10;85.40;;;;;;5113444;28;20297;-89
2024/02/24 09:31:12;;;;;;;22.60;20.60;;;6.20;85.70;;;;;;5113479;28;20185;-89
2024/02/24 09:33:38;;;;;;;22.17;20.40;;;6.30;84.70;;;;;;5113485;28;20178;-89
2024/02/24 09:36:03;;;;;;;21.90;20.20;;;6.50;84.80;;;;;;5113444;28;20178;-89
2024/02/24 09:38:29;;;;;;;21.10;19.13;;;6.60;84.40;;;;;;5113284;28;20198;-89
2024/02/24 09:40:54;;;;;;;22.43;20.73;;;6.80;84.40;;;;;;5113402;28;20189;-89
2024/02/24 09:43:20;;;;;;;21.30;19.90;;;6.80;83.50;;;;;;5114806;28;20248;-89
2024/02/24 09:45:47;;;;;;;22.03;20.30;;;7.00;83.40;;;;;;5113198;28;20173;-89
2024/02/24 09:48:14;;;;;;;22.30;20.40;;;6.90;83.30;;;;;;5113129;28;20204;-89
2024/02/24 09:50:40;;;;;;;20.17;18.87;;;7.00;84.20;;;;;;5113115;28;20177;-89
2024/02/24 09:53:06;;;;;;;22.53;20.87;;;7.10;83.50;;;;;;5113165;28;20219;-89
2024/02/24 09:55:32;;;;;;;22.80;21.10;;;7.20;82.70;;;;;;5113486;28;20588;-89
2024/02/24 09:57:59;;;;;;;21.40;19.70;;;7.30;82.30;;;;;;5114200;28;20190;-89
2024/02/24 10:00:26;;;;;;;23.37;21.63;;;7.50;83.10;;;;;;5114249;28;20587;-89
2024/02/24 10:02:52;;;;;;;21.17;19.73;;;7.50;82.40;;;;;;5112988;28;20170;-89
2024/02/24 10:05:18;;;;;;;22.63;20.90;;;7.70;82.60;;;;;;5114243;27;20203;-89
2024/02/24 10:07:45;;;;;;;22.97;21.40;;;7.80;82.30;;;;;;5114183;28;20194;-89
2024/02/24 10:10:13;;;;;;;22.77;21.17;;;8.10;82.60;;;;;;5114108;28;20212;-89
2024/02/24 10:12:39;;;;;;;22.73;20.97;;;8.30;82.20;;;;;;5112848;28;20646;-90
2024/02/24 10:15:05;;;;;;;24.00;22.23;;;8.20;82.10;;;;;;5112714;28;20181;-89
2024/02/24 10:17:31;;;;;;;24.50;22.80;;;7.90;81.30;;;;;;5112688;28;20203;-90
2024/02/24 10:19:57;;;;;;;25.33;23.35;;;7.80;81.70;;;;;;5111948;28;20402;-89
2024/02/24 10:22:22;;;;;;;24.30;22.70;;;7.70;82.50;;;;;;5111854;28;20178;-89
2024/02/24 10:24:48;;;;;;;23.57;21.90;;;7.60;82.60;;;;;;5112745;28;20173;-90
2024/02/24 10:27:17;;;;;;;22.57;20.93;;;7.70;82.40;;;;;;5112609;28;20186;-89
2024/02/24 10:29:48;;;;;;;23.10;21.23;;;7.80;82.00;;;;;;5113674;28;20197;-89
2024/02/24 10:32:14;;;;;;;23.70;22.20;;;7.80;81.30;;;;;;5113834;28;20199;-89
2024/02/24 10:34:40;;;;;;;22.40;20.70;;;7.80;81.50;;;;;;5113902;28;20185;-90
2024/02/24 10:37:07;;;;;;;23.40;21.40;;;7.90;81.70;;;;;;5113721;28;20174;-90
2024/02/24 10:39:35;;;;;;;23.97;22.07;;;7.90;81.50;;;;;;5113607;28;20190;-89
2024/02/24 10:42:04;;;;;;;22.90;21.40;;;7.80;81.20;;;;;;5112580;28;20185;-89
2024/02/24 10:44:35;;;;;;;22.20;20.67;;;7.90;81.30;;;;;;5113956;28;20236;-90
2024/02/24 10:47:01;;;;;;;21.73;20.13;;;7.90;81.40;;;;;;5112427;28;20235;-89
2024/02/24 10:49:28;;;;;;;22.80;21.10;;;8.00;82.70;;;;;;5113171;28;20646;-90
2024/02/24 10:51:54;;;;;;;22.33;20.80;;;7.80;81.70;;;;;;5112363;28;20185;-89
2024/02/24 10:54:22;;;;;;;23.30;21.37;;;7.80;82.00;;;;;;5112282;28;20174;-90
2024/02/24 10:56:55;;;;;;;23.13;21.43;;;7.90;82.10;;;;;;5112305;28;20174;-89
2024/02/24 10:59:31;;;;;;;22.97;21.37;;;7.90;81.80;;;;;;5112294;28;20202;-89
2024/02/24 11:02:03;;;;;;;23.23;21.50;;;7.90;82.00;;;;;;5112384;28;20177;-89
2024/02/24 11:04:34;;;;;;;22.77;21.27;;;7.90;81.90;;;;;;5113411;28;20189;-88
2024/02/24 11:07:00;;;;;;;24.13;22.43;;;7.90;81.40;;;;;;5113646;28;20158;-89
2024/02/24 11:09:30;;;;;;;25.90;23.80;;;7.90;81.40;;;;;;5112099;28;20590;-88
2024/02/24 11:12:07;;;;;;;24.57;22.90;;;8.00;81.40;;;;;;5113541;28;20216;-88
2024/02/24 11:14:37;;;;;;;24.23;22.43;;;8.10;81.70;;;;;;5113802;28;20535;-88
2024/02/24 11:17:03;;;;;;;24.67;23.07;;;8.20;81.90;;;;;;5113422;28;20167;-89
2024/02/24 11:19:47;;;;;;;26.63;24.60;;;8.20;81.60;;;;;;5112068;28;20282;-90
2024/02/24 11:22:29;;;;;;;25.10;23.50;;;8.10;80.60;;;;;;5112196;28;20166;-89
2024/02/24 11:25:04;;;;;;;16.20;14.97;;;8.20;80.90;;;;;;5112163;28;20166;-90
2024/02/24 11:27:31;;;;;;;16.17;15.00;;;8.30;81.50;;;;;;5112028;28;20191;-90
2024/02/24 11:29:58;;;;;;;16.80;15.43;;;8.40;81.40;;;;;;5112062;28;20198;-90
2024/02/24 11:32:23;;;;;;;18.33;17.00;;;8.30;80.80;;;;;;5113213;28;20529;-90
2024/02/24 11:34:49;;;;;;;18.40;16.60;;;8.40;80.80;;;;;;5114151;28;20181;-89
2024/02/24 11:37:16;;;;;;;17.70;16.30;;;8.40;80.90;;;;;;5115845;28;20174;-89
2024/02/24 11:39:44;;;;;;;18.13;16.83;;;8.40;80.20;;;;;;5117569;28;20646;-90
2024/02/24 11:42:11;;;;;;;18.77;17.47;;;8.50;80.20;;;;;;5117002;28;20166;-89
2024/02/24 11:44:41;;;;;;;17.63;16.43;;;8.40;79.60;;;;;;5115726;28;20182;-90
2024/02/24 11:47:07;;;;;;;16.93;15.73;;;8.40;80.00;;;;;;5115755;28;20174;-90
2024/02/24 11:49:33;;;;;;;18.80;17.40;;;8.40;81.20;;;;;;5116621;28;20231;-90
2024/02/24 11:51:58;;;;;;;17.60;16.20;;;8.30;79.70;;;;;;5115555;28;20174;-90
2024/02/24 11:54:24;;;;;;;16.47;15.37;;;8.70;79.50;;;;;;5115498;28;20201;-89
2024/02/24 11:56:50;;;;;;;17.03;15.70;;;9.10;79.10;;;;;;5115427;28;20594;-90
2024/02/24 11:59:15;;;;;;;17.90;16.40;;;9.50;78.90;;;;;;5115361;28;20205;-89
2024/02/24 12:01:41;;;;;;;18.40;16.97;;;9.50;76.80;;;;;;5116224;28;20178;-88
2024/02/24 12:04:06;;;;;;;19.97;18.67;;;9.70;77.70;;;;;;5115498;28;20209;-88
2024/02/24 12:06:32;;;;;;;19.80;18.30;;;9.10;75.70;;;;;;5116331;28;20197;-89
2024/02/24 12:08:59;;;;;;;19.37;18.07;;;8.90;77.70;;;;;;5115263;28;20675;-87
2024/02/24 12:11:27;;;;;;;19.47;17.97;;;8.70;78.00;;;;;;5116517;27;20260;-86
2024/02/24 12:13:52;;;;;;;18.50;17.20;;;8.70;77.70;;;;;;5115273;28;20170;-87
2024/02/24 12:16:18;;;;;;;18.90;17.43;;;8.60;78.90;;;;;;5117111;28;20302;-92
2024/02/24 12:18:47;;;;;;;18.00;16.73;;;8.70;78.80;;;;;;5115353;28;20198;-89
2024/02/24 12:21:13;;;;;;;18.83;17.53;;;8.60;78.50;;;;;;5115136;28;20188;-90
2024/02/24 12:23:41;;;;;;;18.10;16.77;;;8.60;78.70;;;;;;5114990;28;20264;-90
2024/02/24 12:26:14;;;;;;;18.10;16.90;;;8.60;78.60;;;;;;5114918;28;20178;-89
2024/02/24 12:28:40;;;;;;;19.20;17.80;;;8.60;79.40;;;;;;5115053;28;20739;-90
2024/02/24 12:31:10;;;;;;;19.47;17.97;;;8.50;78.00;;;;;;5116017;28;20177;-89